sensor_id;sensor_type;location;lat;lon;timestamp;pressure;altitude;pressure_sealevel;temperature;humidity
56414;BME280;42318;48.452;19.526;2023-04-04T00:03:56;98430.63;;;20.79;47.24
56414;BME280;42318;48.452;19.526;2023-04-04T00:11:28;98426.53;;;20.77;47.49
56414;BME280;42318;48.452;19.526;2023-04-04T00:18:59;98448.38;;;20.82;47.27
56414;BME280;42318;48.452;19.526;2023-04-04T00:26:30;98453.28;;;20.85;46.81
56414;BME280;42318;48.452;19.526;2023-04-04T00:34:01;98439.69;;;20.85;46.75
56414;BME280;42318;48.452;19.526;2023-04-04T00:41:31;98441.59;;;20.84;46.78
56414;BME280;42318;48.452;19.526;2023-04-04T00:49:02;98437.16;;;20.78;47.11
56414;BME280;42318;48.452;19.526;2023-04-04T00:56:36;98433.31;;;20.74;46.95
56414;BME280;42318;48.452;19.526;2023-04-04T01:04:09;98437.16;;;20.78;46.79
56414;BME280;42318;48.452;19.526;2023-04-04T01:11:40;98444.25;;;20.79;46.78
56414;BME280;42318;48.452;19.526;2023-04-04T01:19:18;98448.59;;;20.80;46.51
56414;BME280;42318;48.452;19.526;2023-04-04T01:26:51;98442.09;;;20.81;46.59
56414;BME280;42318;48.452;19.526;2023-04-04T01:34:39;98435.56;;;20.82;46.54
56414;BME280;42318;48.452;19.526;2023-04-04T01:42:12;98430.63;;;20.79;46.77
56414;BME280;42318;48.452;19.526;2023-04-04T01:49:44;98435.25;;;20.79;46.72
56414;BME280;42318;48.452;19.526;2023-04-04T01:57:14;98420.81;;;20.78;46.40
56414;BME280;42318;48.452;19.526;2023-04-04T02:04:45;98399.28;;;20.77;46.57
56414;BME280;42318;48.452;19.526;2023-04-04T02:12:17;98387.56;;;20.71;46.22
56414;BME280;42318;48.452;19.526;2023-04-04T02:19:48;98387.59;;;20.76;46.12
56414;BME280;42318;48.452;19.526;2023-04-04T02:27:19;98367.97;;;20.74;46.33
56414;BME280;42318;48.452;19.526;2023-04-04T02:34:50;98358.69;;;20.70;46.53
56414;BME280;42318;48.452;19.526;2023-04-04T02:42:21;98354.06;;;20.70;46.75
56414;BME280;42318;48.452;19.526;2023-04-04T02:49:52;98336.94;;;20.75;46.21
56414;BME280;42318;48.452;19.526;2023-04-04T02:57:22;98310.25;;;20.72;46.25
56414;BME280;42318;48.452;19.526;2023-04-04T03:04:53;98312.16;;;20.77;46.17
56414;BME280;42318;48.452;19.526;2023-04-04T03:12:24;98304.56;;;20.79;45.89
56414;BME280;42318;48.452;19.526;2023-04-04T03:19:55;98302.09;;;20.77;46.36
56414;BME280;42318;48.452;19.526;2023-04-04T03:27:25;98298.00;;;20.75;46.04
56414;BME280;42318;48.452;19.526;2023-04-04T03:34:56;98298.56;;;20.77;46.09
56414;BME280;42318;48.452;19.526;2023-04-04T03:42:32;98298.53;;;20.72;46.20
56414;BME280;42318;48.452;19.526;2023-04-04T03:50:03;98293.06;;;20.66;46.30
56414;BME280;42318;48.452;19.526;2023-04-04T03:57:34;98296.59;;;20.67;46.33
56414;BME280;42318;48.452;19.526;2023-04-04T04:05:05;98303.69;;;20.68;46.01
56414;BME280;42318;48.452;19.526;2023-04-04T04:12:36;98305.84;;;20.66;46.26
56414;BME280;42318;48.452;19.526;2023-04-04T04:20:08;98308.84;;;20.64;45.78
56414;BME280;42318;48.452;19.526;2023-04-04T04:27:39;98324.66;;;20.67;46.01
56414;BME280;42318;48.452;19.526;2023-04-04T04:35:11;98327.91;;;20.64;45.77
56414;BME280;42318;48.452;19.526;2023-04-04T04:42:45;98323.22;;;20.55;46.03
56414;BME280;42318;48.452;19.526;2023-04-04T04:50:16;98351.28;;;20.60;46.28
56414;BME280;42318;48.452;19.526;2023-04-04T04:57:47;98348.00;;;20.58;45.87
56414;BME280;42318;48.452;19.526;2023-04-04T05:05:18;98354.31;;;20.64;45.50
56414;BME280;42318;48.452;19.526;2023-04-04T05:12:49;98343.41;;;20.64;45.83
56414;BME280;42318;48.452;19.526;2023-04-04T05:20:19;98351.56;;;20.64;45.85
56414;BME280;42318;48.452;19.526;2023-04-04T05:27:51;98350.19;;;20.61;45.63
56414;BME280;42318;48.452;19.526;2023-04-04T05:35:22;98346.97;;;20.64;45.60
56414;BME280;42318;48.452;19.526;2023-04-04T05:42:56;98350.50;;;20.65;45.70
56414;BME280;42318;48.452;19.526;2023-04-04T05:50:27;98350.75;;;20.63;45.54
56414;BME280;42318;48.452;19.526;2023-04-04T05:57:58;98339.06;;;20.63;45.99
56414;BME280;42318;48.452;19.526;2023-04-04T06:05:29;98350.53;;;20.70;46.04
56414;BME280;42318;48.452;19.526;2023-04-04T06:13:00;98346.97;;;20.64;45.69
56414;BME280;42318;48.452;19.526;2023-04-04T06:20:31;98344.25;;;20.69;45.78
56414;BME280;42318;48.452;19.526;2023-04-04T06:28:01;98339.63;;;20.70;45.53
56414;BME280;42318;48.452;19.526;2023-04-04T06:35:33;98344.78;;;20.66;45.91
56414;BME280;42318;48.452;19.526;2023-04-04T06:43:03;98335.25;;;20.64;45.86
56414;BME280;42318;48.452;19.526;2023-04-04T06:50:34;98329.81;;;20.64;46.01
56414;BME280;42318;48.452;19.526;2023-04-04T06:58:05;98338.53;;;20.66;45.89
56414;BME280;42318;48.452;19.526;2023-04-04T07:05:36;98335.81;;;20.71;46.51
56414;BME280;42318;48.452;19.526;2023-04-04T07:13:09;98322.75;;;20.68;46.81
56414;BME280;42318;48.452;19.526;2023-04-04T07:20:40;98343.44;;;20.69;46.88
56414;BME280;42318;48.452;19.526;2023-04-04T07:28:13;98347.56;;;20.77;46.16
56414;BME280;42318;48.452;19.526;2023-04-04T07:35:43;98343.50;;;20.79;46.10
56414;BME280;42318;48.452;19.526;2023-04-04T07:43:14;98324.44;;;20.79;46.36
56414;BME280;42318;48.452;19.526;2023-04-04T07:50:46;98298.59;;;20.82;46.29
56414;BME280;42318;48.452;19.526;2023-04-04T07:58:16;98308.44;;;20.88;46.34
56414;BME280;42318;48.452;19.526;2023-04-04T08:05:47;98286.41;;;20.94;46.44
56414;BME280;42318;48.452;19.526;2023-04-04T08:13:18;98287.78;;;21.02;46.33
56414;BME280;42318;48.452;19.526;2023-04-04T08:20:49;98305.78;;;21.13;46.03
56414;BME280;42318;48.452;19.526;2023-04-04T08:28:19;98308.81;;;21.22;45.81
56414;BME280;42318;48.452;19.526;2023-04-04T08:35:50;98304.25;;;21.27;46.05
56414;BME280;42318;48.452;19.526;2023-04-04T08:43:22;98290.63;;;21.27;45.80
56414;BME280;42318;48.452;19.526;2023-04-04T08:50:55;98286.81;;;21.28;46.35
56414;BME280;42318;48.452;19.526;2023-04-04T08:58:29;98286.28;;;21.37;46.08
56414;BME280;42318;48.452;19.526;2023-04-04T09:06:00;98278.97;;;21.62;46.30
56414;BME280;42318;48.452;19.526;2023-04-04T09:13:31;98284.19;;;21.69;46.96
56414;BME280;42318;48.452;19.526;2023-04-04T09:21:09;98276.81;;;21.70;47.62
56414;BME280;42318;48.452;19.526;2023-04-04T09:28:41;98281.72;;;21.73;48.16
56414;BME280;42318;48.452;19.526;2023-04-04T09:36:12;98288.78;;;21.63;48.45
56414;BME280;42318;48.452;19.526;2023-04-04T09:43:44;98300.25;;;21.71;48.48
56414;BME280;42318;48.452;19.526;2023-04-04T09:51:15;98284.44;;;21.73;48.43
56414;BME280;42318;48.452;19.526;2023-04-04T09:58:46;98280.91;;;21.82;48.38
56414;BME280;42318;48.452;19.526;2023-04-04T10:06:17;98262.09;;;21.81;48.22
56414;BME280;42318;48.452;19.526;2023-04-04T10:13:51;98270.81;;;21.83;48.60
56414;BME280;42318;48.452;19.526;2023-04-04T10:21:22;98261.28;;;21.80;48.88
56414;BME280;42318;48.452;19.526;2023-04-04T10:28:53;98246.81;;;21.85;48.88
56414;BME280;42318;48.452;19.526;2023-04-04T10:36:29;98237.53;;;21.86;48.99
56414;BME280;42318;48.452;19.526;2023-04-04T10:44:30;98229.91;;;21.88;48.72
56414;BME280;42318;48.452;19.526;2023-04-04T10:52:01;98233.69;;;21.97;48.43
56414;BME280;42318;48.452;19.526;2023-04-04T10:59:32;98220.63;;;21.94;48.67
56414;BME280;42318;48.452;19.526;2023-04-04T11:07:15;98214.34;;;21.93;48.36
56414;BME280;42318;48.452;19.526;2023-04-04T11:15:06;98208.06;;;21.88;47.59
56414;BME280;42318;48.452;19.526;2023-04-04T11:22:40;98198.81;;;21.89;47.59
56414;BME280;42318;48.452;19.526;2023-04-04T11:30:12;98210.81;;;21.83;47.89
56414;BME280;42318;48.452;19.526;2023-04-04T11:45:24;98201.81;;;21.67;48.34
56414;BME280;42318;48.452;19.526;2023-04-04T11:52:55;98193.34;;;21.58;48.13
56414;BME280;42318;48.452;19.526;2023-04-04T12:00:33;98193.34;;;21.48;47.46
56414;BME280;42318;48.452;19.526;2023-04-04T12:08:08;98180.81;;;21.32;47.47
56414;BME280;42318;48.452;19.526;2023-04-04T12:15:41;98191.41;;;21.23;47.84
56414;BME280;42318;48.452;19.526;2023-04-04T12:23:12;98190.28;;;21.14;48.13
56414;BME280;42318;48.452;19.526;2023-04-04T12:30:44;98182.66;;;21.06;48.10
56414;BME280;42318;48.452;19.526;2023-04-04T12:38:15;98200.06;;;21.05;47.94
56414;BME280;42318;48.452;19.526;2023-04-04T12:45:49;98185.38;;;21.01;48.42
56414;BME280;42318;48.452;19.526;2023-04-04T12:53:26;98187.53;;;20.94;48.39
56414;BME280;42318;48.452;19.526;2023-04-04T13:00:59;98186.44;;;20.90;48.59
56414;BME280;42318;48.452;19.526;2023-04-04T13:08:30;98178.00;;;20.91;48.15
56414;BME280;42318;48.452;19.526;2023-04-04T13:16:06;98184.81;;;20.99;48.21
56414;BME280;42318;48.452;19.526;2023-04-04T13:23:39;98184.00;;;21.09;47.92
56414;BME280;42318;48.452;19.526;2023-04-04T13:31:10;98179.13;;;21.21;47.60
56414;BME280;42318;48.452;19.526;2023-04-04T13:38:41;98173.19;;;21.29;47.17
56414;BME280;42318;48.452;19.526;2023-04-04T13:46:12;98173.47;;;21.27;47.34
56414;BME280;42318;48.452;19.526;2023-04-04T13:53:42;98182.94;;;21.15;47.65
56414;BME280;42318;48.452;19.526;2023-04-04T14:01:14;98175.28;;;21.07;47.87
56414;BME280;42318;48.452;19.526;2023-04-04T14:08:45;98178.56;;;20.98;48.10
56414;BME280;42318;48.452;19.526;2023-04-04T14:16:16;98187.53;;;20.89;47.95
56414;BME280;42318;48.452;19.526;2023-04-04T14:23:47;98184.81;;;20.94;48.19
56414;BME280;42318;48.452;19.526;2023-04-04T14:31:18;98206.59;;;20.99;47.82
56414;BME280;42318;48.452;19.526;2023-04-04T14:38:49;98217.22;;;21.00;47.77
56414;BME280;42318;48.452;19.526;2023-04-04T14:46:20;98201.97;;;20.99;47.91
56414;BME280;42318;48.452;19.526;2023-04-04T14:53:51;98216.16;;;21.01;48.13
56414;BME280;42318;48.452;19.526;2023-04-04T15:01:22;98217.22;;;20.95;48.50
56414;BME280;42318;48.452;19.526;2023-04-04T15:08:53;98221.31;;;20.93;48.17
56414;BME280;42318;48.452;19.526;2023-04-04T15:16:23;98216.66;;;20.93;48.13
56414;BME280;42318;48.452;19.526;2023-04-04T15:23:54;98234.94;;;20.98;48.16
56414;BME280;42318;48.452;19.526;2023-04-04T15:31:25;98228.66;;;20.97;47.95
56414;BME280;42318;48.452;19.526;2023-04-04T15:38:56;98240.09;;;20.99;47.36
56414;BME280;42318;48.452;19.526;2023-04-04T15:46:27;98245.00;;;20.97;47.42
56414;BME280;42318;48.452;19.526;2023-04-04T15:53:58;98256.72;;;20.98;47.85
56414;BME280;42318;48.452;19.526;2023-04-04T16:01:29;98266.00;;;21.02;47.34
56414;BME280;42318;48.452;19.526;2023-04-04T16:09:01;98273.91;;;21.04;47.48
56414;BME280;42318;48.452;19.526;2023-04-04T16:16:32;98284.53;;;21.05;47.21
56414;BME280;42318;48.452;19.526;2023-04-04T16:24:02;98285.88;;;21.02;47.65
56414;BME280;42318;48.452;19.526;2023-04-04T16:31:34;98292.41;;;21.01;47.62
56414;BME280;42318;48.452;19.526;2023-04-04T16:39:06;98300.59;;;21.01;47.52
56414;BME280;42318;48.452;19.526;2023-04-04T16:46:37;98333.00;;;21.03;47.51
56414;BME280;42318;48.452;19.526;2023-04-04T16:54:07;98339.81;;;21.06;47.62
56414;BME280;42318;48.452;19.526;2023-04-04T17:01:38;98350.16;;;21.04;47.64
56414;BME280;42318;48.452;19.526;2023-04-04T17:09:09;98363.22;;;21.01;47.64
56414;BME280;42318;48.452;19.526;2023-04-04T17:16:40;98377.66;;;21.02;47.30
56414;BME280;42318;48.452;19.526;2023-04-04T17:24:12;98385.00;;;20.96;47.46
56414;BME280;42318;48.452;19.526;2023-04-04T17:31:44;98395.91;;;20.96;47.69
56414;BME280;42318;48.452;19.526;2023-04-04T17:39:18;98408.16;;;20.99;47.73
56414;BME280;42318;48.452;19.526;2023-04-04T17:46:49;98422.91;;;21.03;47.64
56414;BME280;42318;48.452;19.526;2023-04-04T17:54:20;98431.06;;;21.03;47.58
56414;BME280;42318;48.452;19.526;2023-04-04T18:01:52;98451.50;;;21.06;47.62
56414;BME280;42318;48.452;19.526;2023-04-04T18:09:23;98458.13;;;21.20;47.53
56414;BME280;42318;48.452;19.526;2023-04-04T18:16:54;98461.78;;;21.30;47.41
56414;BME280;42318;48.452;19.526;2023-04-04T18:24:26;98477.59;;;21.34;47.78
56414;BME280;42318;48.452;19.526;2023-04-04T18:32:00;98485.50;;;21.30;47.45
56414;BME280;42318;48.452;19.526;2023-04-04T18:39:32;98484.41;;;21.31;47.66
56414;BME280;42318;48.452;19.526;2023-04-04T18:47:03;98496.41;;;21.35;47.94
56414;BME280;42318;48.452;19.526;2023-04-04T18:54:35;98507.06;;;21.37;47.62
56414;BME280;42318;48.452;19.526;2023-04-04T19:02:06;98508.13;;;21.30;47.04
56414;BME280;42318;48.452;19.526;2023-04-04T19:09:37;98508.09;;;21.25;46.97
56414;BME280;42318;48.452;19.526;2023-04-04T19:17:09;98507.72;;;21.22;46.86
56414;BME280;42318;48.452;19.526;2023-04-04T19:24:42;98514.00;;;21.22;47.04
56414;BME280;42318;48.452;19.526;2023-04-04T19:32:16;98512.63;;;21.20;47.03
56414;BME280;42318;48.452;19.526;2023-04-04T19:39:49;98505.00;;;21.22;47.11
56414;BME280;42318;48.452;19.526;2023-04-04T19:47:19;98509.13;;;21.24;47.76
56414;BME280;42318;48.452;19.526;2023-04-04T19:54:51;98517.09;;;21.26;47.49
56414;BME280;42318;48.452;19.526;2023-04-04T20:10:08;98522.81;;;21.29;47.55
56414;BME280;42318;48.452;19.526;2023-04-04T20:17:39;98514.38;;;21.31;47.30
56414;BME280;42318;48.452;19.526;2023-04-04T20:25:39;98508.13;;;21.30;47.38
56414;BME280;42318;48.452;19.526;2023-04-04T20:33:33;98515.72;;;21.28;47.86
56414;BME280;42318;48.452;19.526;2023-04-04T20:48:43;98497.34;;;21.19;47.81
56414;BME280;42318;48.452;19.526;2023-04-04T21:04:23;98518.19;;;21.30;47.71
56414;BME280;42318;48.452;19.526;2023-04-04T21:11:57;98512.13;;;21.23;47.71
56414;BME280;42318;48.452;19.526;2023-04-04T21:19:28;98519.72;;;21.21;47.63
56414;BME280;42318;48.452;19.526;2023-04-04T21:27:00;98509.63;;;21.21;47.50
56414;BME280;42318;48.452;19.526;2023-04-04T21:34:33;98500.63;;;21.21;47.24
56414;BME280;42318;48.452;19.526;2023-04-04T21:42:05;98511.03;;;21.24;46.72
56414;BME280;42318;48.452;19.526;2023-04-04T21:49:35;98506.69;;;21.23;46.63
56414;BME280;42318;48.452;19.526;2023-04-04T21:57:06;98499.53;;;21.17;46.53
56414;BME280;42318;48.452;19.526;2023-04-04T22:04:37;98495.97;;;21.16;46.58
56414;BME280;42318;48.452;19.526;2023-04-04T22:12:08;98499.25;;;21.18;46.41
56414;BME280;42318;48.452;19.526;2023-04-04T22:19:45;98503.31;;;21.11;46.23
56414;BME280;42318;48.452;19.526;2023-04-04T22:27:16;98504.38;;;21.10;46.35
56414;BME280;42318;48.452;19.526;2023-04-04T22:34:47;98510.91;;;21.09;46.53
56414;BME280;42318;48.452;19.526;2023-04-04T22:42:18;98508.22;;;21.14;46.22
56414;BME280;42318;48.452;19.526;2023-04-04T22:49:49;98510.97;;;21.19;46.11
56414;BME280;42318;48.452;19.526;2023-04-04T22:57:20;98502.28;;;21.22;45.74
56414;BME280;42318;48.452;19.526;2023-04-04T23:04:51;98502.81;;;21.19;45.61
56414;BME280;42318;48.452;19.526;2023-04-04T23:12:22;98505.75;;;21.12;45.88
56414;BME280;42318;48.452;19.526;2023-04-04T23:19:53;98495.09;;;21.06;45.73
56414;BME280;42318;48.452;19.526;2023-04-04T23:27:24;98501.03;;;20.97;45.92
56414;BME280;42318;48.452;19.526;2023-04-04T23:34:55;98499.38;;;20.91;46.17
56414;BME280;42318;48.452;19.526;2023-04-04T23:42:25;98494.44;;;20.88;46.02
56414;BME280;42318;48.452;19.526;2023-04-04T23:49:56;98496.91;;;20.90;45.69
56414;BME280;42318;48.452;19.526;2023-04-04T23:57:27;98495.53;;;20.87;46.11
